TVS3WY LKPR-LGRP
Flight info
| Callsign | TVS3WY |
|---|---|
| Flight time | N/A |
| Altitude | 35000 |
| Route | VOZ DCT PISAM DCT TEKNO DCT BABIT DCT RIGMU DCT RISTU DCT INRES DCT RUGAS UN128 FSK UG18 MES UN139 LURUS UL995 CODIC |
| Aircraft | B738/M-SDE3FGHIJ1RWXY/LB1 |
Departure
| Time | N/A |
|---|---|
| Airport | Václav Havel Airport Prague (LKPR) |
Arrival
| Time | 2026-05-01 08:02 |
|---|---|
| Airport | Rhodes International Airport "Diagoras" (LGRP) |
| Time | Latitude | Longitude | Altitude | Speed | Heading |
|---|---|---|---|---|---|
| 2026-05-01 07:23 | 39.20258 | 24.96743 | 35151 ft | 495 kts | 148° |
| 2026-05-01 07:24 | 39.12114 | 25.04896 | 35159 ft | 494 kts | 148° |
| 2026-05-01 07:24 | 39.06687 | 25.10316 | 35157 ft | 493 kts | 148° |
| 2026-05-01 07:25 | 39.01265 | 25.15722 | 35148 ft | 493 kts | 148° |
| 2026-05-01 07:25 | 38.95833 | 25.21128 | 35146 ft | 493 kts | 148° |
| 2026-05-01 07:26 | 38.90468 | 25.26631 | 35144 ft | 493 kts | 146° |
| 2026-05-01 07:26 | 38.85212 | 25.32234 | 35131 ft | 494 kts | 146° |
| 2026-05-01 07:27 | 38.79912 | 25.37864 | 35127 ft | 493 kts | 146° |
| 2026-05-01 07:27 | 38.74602 | 25.43453 | 35120 ft | 493 kts | 146° |
| 2026-05-01 07:28 | 38.69286 | 25.49023 | 35116 ft | 493 kts | 146° |
| 2026-05-01 07:28 | 38.64003 | 25.54548 | 35088 ft | 493 kts | 146° |
| 2026-05-01 07:29 | 38.58695 | 25.60090 | 35105 ft | 493 kts | 146° |
| 2026-05-01 07:29 | 38.53375 | 25.65636 | 35090 ft | 494 kts | 146° |
| 2026-05-01 07:30 | 38.48045 | 25.71182 | 35095 ft | 494 kts | 146° |
| 2026-05-01 07:30 | 38.42704 | 25.76727 | 35087 ft | 495 kts | 146° |
| 2026-05-01 07:31 | 38.37381 | 25.82240 | 35051 ft | 495 kts | 146° |
| 2026-05-01 07:32 | 38.23970 | 25.96083 | 35064 ft | 497 kts | 146° |
| 2026-05-01 07:33 | 38.15878 | 26.04398 | 35074 ft | 499 kts | 147° |
| 2026-05-01 07:33 | 38.07783 | 26.12697 | 35043 ft | 501 kts | 147° |
| 2026-05-01 07:34 | 37.99639 | 26.21024 | 35064 ft | 502 kts | 147° |
| 2026-05-01 07:35 | 37.94176 | 26.26596 | 35048 ft | 504 kts | 147° |
| 2026-05-01 07:35 | 37.88739 | 26.32132 | 34901 ft | 506 kts | 147° |
| 2026-05-01 07:35 | 37.85999 | 26.34916 | 34589 ft | 504 kts | 147° |
| 2026-05-01 07:36 | 37.83271 | 26.37686 | 34317 ft | 502 kts | 147° |
| 2026-05-01 07:36 | 37.80534 | 26.40459 | 33968 ft | 506 kts | 148° |
| 2026-05-01 07:36 | 37.77773 | 26.43251 | 33634 ft | 511 kts | 147° |
| 2026-05-01 07:36 | 37.74980 | 26.46073 | 33296 ft | 515 kts | 147° |
| 2026-05-01 07:37 | 37.69394 | 26.51723 | 32593 ft | 510 kts | 147° |
| 2026-05-01 07:37 | 37.66639 | 26.54511 | 32256 ft | 505 kts | 147° |
| 2026-05-01 07:37 | 37.63895 | 26.57281 | 31904 ft | 503 kts | 147° |
| 2026-05-01 07:38 | 37.61132 | 26.59966 | 31578 ft | 497 kts | 152° |
| 2026-05-01 07:38 | 37.58167 | 26.62095 | 31239 ft | 485 kts | 162° |
| 2026-05-01 07:38 | 37.52043 | 26.65523 | 30659 ft | 479 kts | 163° |
| 2026-05-01 07:39 | 37.48993 | 26.67204 | 30379 ft | 478 kts | 163° |
| 2026-05-01 07:39 | 37.45956 | 26.68894 | 30083 ft | 477 kts | 163° |
| 2026-05-01 07:39 | 37.39885 | 26.72325 | 29419 ft | 479 kts | 162° |
| 2026-05-01 07:40 | 37.36876 | 26.74039 | 29003 ft | 482 kts | 162° |
| 2026-05-01 07:40 | 37.33808 | 26.75789 | 28521 ft | 486 kts | 162° |
| 2026-05-01 07:40 | 37.30723 | 26.77549 | 28043 ft | 489 kts | 162° |
| 2026-05-01 07:40 | 37.27611 | 26.79326 | 27522 ft | 491 kts | 162° |
| 2026-05-01 07:41 | 37.24490 | 26.81105 | 27058 ft | 492 kts | 161° |
| 2026-05-01 07:41 | 37.21371 | 26.82881 | 26605 ft | 492 kts | 161° |
| 2026-05-01 07:41 | 37.15137 | 26.86424 | 25708 ft | 490 kts | 161° |
| 2026-05-01 07:42 | 37.12039 | 26.88184 | 25256 ft | 485 kts | 161° |
| 2026-05-01 07:42 | 37.09044 | 26.89893 | 24870 ft | 473 kts | 161° |
| 2026-05-01 07:42 | 37.06079 | 26.91576 | 24490 ft | 464 kts | 161° |
| 2026-05-01 07:42 | 37.03164 | 26.93225 | 24076 ft | 455 kts | 161° |
| 2026-05-01 07:43 | 37.00307 | 26.94838 | 23713 ft | 447 kts | 161° |
| 2026-05-01 07:43 | 36.97494 | 26.96426 | 23269 ft | 439 kts | 161° |
| 2026-05-01 07:43 | 36.92015 | 26.99513 | 22407 ft | 425 kts | 161° |
| 2026-05-01 07:44 | 36.86700 | 27.02505 | 21566 ft | 413 kts | 161° |
| 2026-05-01 07:44 | 36.81528 | 27.05411 | 20755 ft | 402 kts | 161° |
| 2026-05-01 07:45 | 36.78988 | 27.06837 | 20334 ft | 398 kts | 161° |
| 2026-05-01 07:45 | 36.76466 | 27.08252 | 19946 ft | 394 kts | 161° |
| 2026-05-01 07:45 | 36.73984 | 27.09644 | 19556 ft | 389 kts | 161° |
| 2026-05-01 07:45 | 36.71527 | 27.11021 | 19175 ft | 386 kts | 161° |
| 2026-05-01 07:46 | 36.69196 | 27.12597 | 18763 ft | 390 kts | 148° |
| 2026-05-01 07:46 | 36.67250 | 27.14976 | 18375 ft | 395 kts | 131° |
| 2026-05-01 07:46 | 36.64800 | 27.21106 | 17503 ft | 395 kts | 115° |
| 2026-05-01 07:47 | 36.64097 | 27.23188 | 17205 ft | 393 kts | 115° |
| 2026-05-01 07:47 | 36.63040 | 27.26316 | 16755 ft | 391 kts | 115° |
| 2026-05-01 07:47 | 36.61978 | 27.29427 | 16322 ft | 389 kts | 116° |
| 2026-05-01 07:47 | 36.60912 | 27.32517 | 15894 ft | 387 kts | 116° |
| 2026-05-01 07:48 | 36.58774 | 27.38641 | 15050 ft | 384 kts | 116° |
| 2026-05-01 07:48 | 36.57708 | 27.41675 | 14641 ft | 382 kts | 116° |
| 2026-05-01 07:48 | 36.56643 | 27.44703 | 14236 ft | 381 kts | 116° |
| 2026-05-01 07:49 | 36.55582 | 27.47714 | 13816 ft | 379 kts | 115° |
| 2026-05-01 07:49 | 36.53481 | 27.53669 | 13063 ft | 372 kts | 116° |
| 2026-05-01 07:49 | 36.52443 | 27.56608 | 12717 ft | 368 kts | 116° |
| 2026-05-01 07:50 | 36.51419 | 27.59505 | 12381 ft | 364 kts | 116° |
| 2026-05-01 07:50 | 36.49401 | 27.65207 | 11720 ft | 357 kts | 116° |
| 2026-05-01 07:50 | 36.48402 | 27.68023 | 11401 ft | 353 kts | 116° |
| 2026-05-01 07:51 | 36.47418 | 27.70797 | 11101 ft | 346 kts | 116° |
| 2026-05-01 07:51 | 36.46502 | 27.73523 | 10738 ft | 340 kts | 109° |
| 2026-05-01 07:51 | 36.46030 | 27.76335 | 10405 ft | 333 kts | 99° |
| 2026-05-01 07:52 | 36.45375 | 27.81913 | 9682 ft | 320 kts | 100° |
| 2026-05-01 07:52 | 36.45024 | 27.84631 | 9253 ft | 316 kts | 101° |
| 2026-05-01 07:52 | 36.44663 | 27.87303 | 8842 ft | 312 kts | 101° |
| 2026-05-01 07:53 | 36.43707 | 27.92474 | 7991 ft | 302 kts | 123° |
| 2026-05-01 07:53 | 36.42519 | 27.94577 | 7637 ft | 296 kts | 125° |
| 2026-05-01 07:53 | 36.41801 | 27.96962 | 7214 ft | 298 kts | 95° |
| 2026-05-01 07:53 | 36.42122 | 27.99459 | 6832 ft | 293 kts | 64° |
| 2026-05-01 07:54 | 36.43760 | 28.04000 | 6033 ft | 289 kts | 65° |
| 2026-05-01 07:55 | 36.46342 | 28.10700 | 4595 ft | 284 kts | 60° |
| 2026-05-01 07:55 | 36.48179 | 28.14953 | 3915 ft | 271 kts | 60° |
| 2026-05-01 07:56 | 36.50715 | 28.20811 | 3141 ft | 240 kts | 60° |
| 2026-05-01 07:56 | 36.51812 | 28.24501 | 2462 ft | 223 kts | 95° |
| 2026-05-01 07:57 | 36.51260 | 28.26208 | 2292 ft | 211 kts | 133° |
| 2026-05-01 07:57 | 36.48808 | 28.27035 | 2060 ft | 186 kts | 198° |
| 2026-05-01 07:58 | 36.46560 | 28.25694 | 1999 ft | 176 kts | 224° |
| 2026-05-01 07:58 | 36.44984 | 28.23469 | 2001 ft | 164 kts | 243° |
| 2026-05-01 07:59 | 36.44153 | 28.20968 | 1820 ft | 151 kts | 252° |
| 2026-05-01 07:59 | 36.43435 | 28.18511 | 1391 ft | 153 kts | 251° |
| 2026-05-01 08:00 | 36.41976 | 28.13590 | 547 ft | 144 kts | 253° |
| 2026-05-01 08:01 | 36.40953 | 28.10040 | 35 ft | 145 kts | 251° |
| 2026-05-01 08:01 | 36.40644 | 28.08979 | 28 ft | 112 kts | 250° |
| 2026-05-01 08:01 | 36.40436 | 28.08274 | 26 ft | 53 kts | 249° |
| 2026-05-01 08:02 | 36.40192 | 28.07869 | 27 ft | 9 kts | 198° |
| 2026-05-01 08:02 | 36.40154 | 28.07892 | 27 ft | 6 kts | 120° |
| 2026-05-01 08:03 | 36.40179 | 28.08016 | 27 ft | 10 kts | 70° |
| 2026-05-01 08:03 | 36.40205 | 28.08107 | 27 ft | 12 kts | 70° |
| 2026-05-01 08:03 | 36.40266 | 28.08314 | 27 ft | 14 kts | 70° |
| 2026-05-01 08:04 | 36.40337 | 28.08555 | 27 ft | 16 kts | 70° |
| 2026-05-01 08:04 | 36.40402 | 28.08835 | 27 ft | 17 kts | 90° |
| 2026-05-01 08:05 | 36.40433 | 28.09119 | 27 ft | 15 kts | 70° |
| 2026-05-01 08:05 | 36.40449 | 28.09193 | 27 ft | 6 kts | 104° |
| 2026-05-01 08:05 | 36.40413 | 28.09222 | 27 ft | 5 kts | 159° |
| 2026-05-01 08:06 | 36.40394 | 28.09231 | 27 ft | 0 kts | 160° |
| 2026-05-01 08:06 | 36.40391 | 28.09232 | 27 ft | 0 kts | 160° |